Terminal Aerodrome Forecast
Issued by NWS

Home | Current Version | Previous Version | Text Only | Print | Product List | Glossary On
Versions: 1 2 3 4 5 6 7 8 9 10 11 12
000
FTUS45 KGJT 201133
TAFMTJ
TAF
KMTJ 201133Z 2012/2112 VRB04KT P6SM BKN180
     FM201600 16010KT P6SM BKN150
     FM202000 21011KT P6SM VCSH SCT080 OVC100
     FM202300 20009KT P6SM -RA OVC050
     FM210200 19005KT 4SM -RA OVC040
     FM210400 21005KT 2SM -RASN OVC030=

USA.gov is the U.S. government's official web portal to all federal, state and local government web resources and services.